Terminal Aerodrome Forecast
Issued by NWS Glasgow, MT

Home | Current Version | Previous Version | Text Only | Print | Product List | Glossary On
Versions: 1 2 3 4 5 6 7 8 9 10 11 12 13
000
FTUS45 KGGW 240523
TAFGGW
TAF
KGGW 240523Z 2406/2506 29015G24KT P6SM SCT050
     FM240900 29012G18KT P6SM BKN030
     FM241600 31025G35KT P6SM BKN020
     FM242000 32017G25KT P6SM BKN035
     FM250300 34006KT P6SM BKN060=

USA.gov is the U.S. government's official web portal to all federal, state and local government web resources and services.